createdAt,value
2023-02-16T00:00:17.994Z,-1.94
2023-02-16T00:05:42.095Z,-1.98
2023-02-16T00:11:06.619Z,-2.05
2023-02-16T00:16:21.754Z,-2.12
2023-02-16T00:21:28.320Z,-2.12
2023-02-16T00:26:34.725Z,-2.10
2023-02-16T00:31:38.516Z,-2.14
2023-02-16T00:36:42.346Z,-2.16
2023-02-16T00:41:54.386Z,-2.28
2023-02-16T00:47:01.577Z,-2.37
2023-02-16T00:52:37.925Z,-2.41
2023-02-16T00:57:48.140Z,-2.45
2023-02-16T01:02:53.906Z,-2.45
2023-02-16T01:08:17.624Z,-2.50
2023-02-16T01:13:21.400Z,-2.55
2023-02-16T01:18:25.057Z,-2.62
2023-02-16T01:23:29.804Z,-2.69
2023-02-16T01:28:39.711Z,-2.73
2023-02-16T01:33:43.727Z,-2.77
2023-02-16T01:38:47.437Z,-2.80
2023-02-16T01:43:59.631Z,-2.90
2023-02-16T01:49:03.278Z,-2.99
2023-02-16T01:54:23.567Z,-3.06
2023-02-16T01:59:50.389Z,-3.10
2023-02-16T02:05:38.644Z,-3.08
2023-02-16T02:10:55.788Z,-3.10
2023-02-16T02:16:00.489Z,-3.14
2023-02-16T02:21:55.979Z,-3.11
2023-02-16T02:27:11.920Z,-3.08
2023-02-16T02:32:47.560Z,-3.13
2023-02-16T02:38:24.438Z,-3.22
2023-02-16T02:43:53.176Z,-3.31
2023-02-16T02:48:58.483Z,-3.34
2023-02-16T02:54:26.756Z,-3.19
2023-02-16T02:59:56.409Z,-3.10
2023-02-16T03:05:02.938Z,-3.12
2023-02-16T03:10:27.152Z,-3.21
2023-02-16T03:15:31.837Z,-3.27
2023-02-16T03:20:54.184Z,-3.31
2023-02-16T03:26:16.427Z,-3.33
2023-02-16T03:31:28.245Z,-3.18
2023-02-16T03:36:35.035Z,-3.13
2023-02-16T03:41:50.159Z,-3.20
2023-02-16T03:46:54.002Z,-3.23
2023-02-16T03:51:57.661Z,-3.21
2023-02-16T03:57:01.297Z,-3.24
2023-02-16T04:02:05.675Z,-3.24
2023-02-16T04:07:09.518Z,-3.15
2023-02-16T04:12:32.317Z,-3.13
2023-02-16T04:17:37.364Z,-3.19
2023-02-16T04:22:41.755Z,-3.24
2023-02-16T04:27:46.306Z,-3.18
2023-02-16T04:32:50.226Z,-3.18
2023-02-16T04:37:53.885Z,-3.26
2023-02-16T04:42:58.571Z,-3.35
2023-02-16T04:48:02.142Z,-3.47
2023-02-16T04:53:05.826Z,-3.54
2023-02-16T04:58:09.570Z,-3.52
2023-02-16T05:03:13.304Z,-3.51
2023-02-16T05:08:20.723Z,-3.51
2023-02-16T05:13:43.232Z,-3.52
2023-02-16T05:18:47.191Z,-3.54
2023-02-16T05:23:50.892Z,-3.54
2023-02-16T05:28:55.110Z,-3.53
2023-02-16T05:33:58.870Z,-3.56
2023-02-16T05:39:02.664Z,-3.60
2023-02-16T05:44:09.247Z,-3.58
2023-02-16T05:49:14.606Z,-3.47
2023-02-16T05:54:18.619Z,-3.42
2023-02-16T05:59:22.358Z,-3.41
2023-02-16T06:04:26.183Z,-3.42
2023-02-16T06:09:32.390Z,-3.42
2023-02-16T06:14:36.160Z,-3.47
2023-02-16T06:19:39.830Z,-3.54
2023-02-16T06:24:43.501Z,-3.51
2023-02-16T06:29:47.110Z,-3.36
2023-02-16T06:34:50.803Z,-3.26
2023-02-16T06:39:54.542Z,-3.17
2023-02-16T06:44:58.130Z,-3.10
2023-02-16T06:50:02.259Z,-3.03
2023-02-16T06:55:07.013Z,-2.91
2023-02-16T07:00:11.031Z,-2.78
2023-02-16T07:05:14.903Z,-2.61
2023-02-16T07:10:20.450Z,-2.47
2023-02-16T07:15:24.145Z,-2.32
2023-02-16T07:20:30.940Z,-2.20
2023-02-16T07:25:36.130Z,-2.11
2023-02-16T07:30:41.417Z,-1.95
2023-02-16T07:35:45.214Z,-1.75
2023-02-16T07:40:48.869Z,-1.49
2023-02-16T07:45:52.983Z,-1.27
2023-02-16T07:50:56.977Z,-1.08
2023-02-16T07:56:00.751Z,-0.92
2023-02-16T08:01:10.718Z,-0.73
2023-02-16T08:06:15.800Z,-0.47
2023-02-16T08:11:24.746Z,-0.25
2023-02-16T08:16:29.808Z,-0.05
2023-02-16T08:21:34.767Z,0.17
2023-02-16T08:26:41.365Z,0.38
2023-02-16T08:31:47.530Z,0.60
2023-02-16T08:36:57.092Z,0.83
2023-02-16T08:42:02.186Z,1.05
2023-02-16T08:47:12.536Z,1.29
2023-02-16T08:52:17.517Z,1.52
2023-02-16T08:57:22.837Z,1.81
2023-02-16T09:02:26.579Z,2.12
2023-02-16T09:07:37.270Z,2.39
2023-02-16T09:12:41.251Z,2.67
2023-02-16T09:17:45.081Z,2.91
2023-02-16T09:22:48.844Z,3.20
2023-02-16T09:27:53.523Z,3.57
2023-02-16T09:33:00.841Z,3.97
2023-02-16T09:38:04.963Z,4.36
2023-02-16T09:43:59.028Z,4.76
2023-02-16T09:49:15.633Z,5.24
2023-02-16T09:54:37.244Z,5.54
2023-02-16T09:59:59.704Z,5.88
2023-02-16T10:05:13.381Z,6.12
2023-02-16T10:10:35.604Z,6.33
2023-02-16T10:15:41.199Z,6.48
2023-02-16T10:20:47.675Z,6.65
2023-02-16T10:25:57.951Z,6.90
2023-02-16T10:31:06.410Z,6.94
2023-02-16T10:36:32.546Z,7.10
2023-02-16T10:41:46.548Z,7.23
2023-02-16T10:47:04.469Z,7.38
2023-02-16T10:52:08.869Z,7.39
2023-02-16T10:57:34.937Z,7.55
2023-02-16T11:02:48.126Z,7.62
2023-02-16T11:07:58.993Z,7.69
2023-02-16T11:13:06.181Z,7.78
2023-02-16T11:18:30.853Z,7.70
2023-02-16T11:24:05.336Z,7.59
2023-02-16T11:29:34.804Z,7.60
2023-02-16T11:35:16.225Z,7.75
2023-02-16T17:00:20.586Z,4.69
2023-02-16T17:05:27.257Z,4.52
2023-02-16T17:10:35.872Z,4.40
2023-02-16T17:15:48.903Z,4.29
2023-02-16T17:20:55.205Z,4.18
2023-02-16T17:26:00.531Z,4.11
2023-02-16T17:32:18.715Z,3.99
2023-02-16T17:38:11.033Z,3.82
2023-02-16T17:57:59.964Z,3.43
2023-02-16T18:03:07.153Z,3.35
2023-02-16T18:15:04.360Z,3.18
2023-02-16T18:20:14.889Z,3.10
2023-02-16T18:25:28.292Z,2.99
2023-02-16T18:30:48.448Z,2.91
2023-02-16T18:35:58.669Z,2.86
2023-02-16T18:41:04.248Z,2.84
2023-02-16T18:46:12.398Z,2.84
2023-02-16T18:51:18.816Z,2.81
2023-02-16T18:56:31.660Z,2.73
2023-02-16T19:01:37.147Z,2.65
2023-02-16T19:07:38.594Z,2.55
2023-02-16T19:12:44.320Z,2.54
2023-02-16T19:17:51.065Z,2.55
2023-02-16T19:22:57.707Z,2.53
2023-02-16T19:28:10.589Z,2.53
2023-02-16T19:33:19.842Z,2.52
2023-02-16T19:38:25.448Z,2.47
2023-02-16T19:43:30.369Z,2.41
2023-02-16T19:48:37.902Z,2.40
2023-02-16T19:53:47.253Z,2.42
2023-02-16T19:58:55.415Z,2.49
2023-02-16T20:04:03.774Z,2.51
2023-02-16T20:09:14.741Z,2.56
2023-02-16T20:14:25.853Z,2.57
2023-02-16T20:19:36.270Z,2.56
2023-02-16T20:24:42.474Z,2.53
2023-02-16T20:29:47.650Z,2.52
2023-02-16T20:34:56.512Z,2.49
2023-02-16T20:40:02.656Z,2.50
2023-02-16T20:45:10.041Z,2.50
2023-02-16T20:50:17.383Z,2.51
2023-02-16T20:55:22.866Z,2.41
2023-02-16T21:51:38.517Z,2.05
2023-02-16T21:57:30.802Z,2.06
2023-02-16T22:02:34.960Z,2.08
2023-02-16T22:07:39.612Z,2.09
2023-02-16T22:12:43.609Z,2.08
2023-02-16T22:17:49.772Z,2.08
2023-02-16T22:22:53.873Z,2.07
2023-02-16T22:27:57.733Z,2.07
2023-02-16T22:33:01.855Z,2.10
2023-02-16T22:38:05.632Z,2.06
2023-02-16T22:43:09.591Z,2.03
2023-02-16T22:48:13.391Z,2.06
2023-02-16T22:53:17.413Z,2.02
2023-02-16T22:58:21.707Z,1.96
2023-02-16T23:03:25.621Z,1.84
2023-02-16T23:08:29.331Z,1.74
2023-02-16T23:13:34.863Z,1.62
2023-02-16T23:18:40.139Z,1.48
2023-02-16T23:23:44.181Z,1.39
2023-02-16T23:28:55.906Z,1.45
2023-02-16T23:34:02.119Z,1.44
2023-02-16T23:39:09.760Z,1.39
2023-02-16T23:44:15.680Z,1.38
2023-02-16T23:49:41.147Z,1.38
2023-02-16T23:54:44.943Z,1.37
2023-02-16T23:59:48.688Z,1.31
